Alpine Airstrip, AK

1:18 PM AKDT on July 25, 2016 (GMT -0800)
Deadhorse Alpine Airstrip | | Change Station

Elev 16 ft 70.34 °N, 150.94 °W | Updated 1 hour ago

Partly Cloudy
Partly Cloudy
48 °F
Feels Like 48 °F
N
14
Wind Variable Wind from East

Today
High -- | Low -- °F
--% Chance of Precip.
Yesterday
High -- | Low -- °F
Precip. -- in
Pressure 29.97 in
Visibility 10.0 miles
Clouds Few 19000 ft
Dew Point 34 °F
Humidity 58%
Rainfall 0.00 in
Snow Depth Not available.
2:42 AM 1:37 AM
Waning Gibbous, 62% visible
METAR PALP 251951Z 08012KT 10SM FEW190 09/01 A2997
Pressure 29.97 in
Visibility 10.0 miles
Clouds Few 19000 ft
Dew Point 34 °F
Humidity 58%
Rainfall 0.00 in
Snow Depth Not available.
2:42 AM 1:37 AM
Waning Gibbous, 62% visible
METAR PALP 251951Z 08012KT 10SM FEW190 09/01 A2997

10-Day Weather Forecast

Almanac

Astronomy

Jul. 25, 2016 Rise Set
Actual Time
Civil Twilight
Nautical Twilight
Astronomical Twilight
Moon
Length of Visible Light
Length of Day
Tomorrow will be .
, % of the Moon is Illuminated

Today's Extremes

State Highs State Lows

Community

WunderPhotos

Upload Photos

1,927,423 photos uploaded!

WunderBlog® & News

Nearby

Air Quality

  Air Quality AQ Index Pollutant
Not available.

Snow Depth

Station Depth Elevation

Earthquake Activity

City Distance Mag. Time & Date
Minimum magnitude displayed is 2.5.

Coastal Water Temperatures

Place Temperature

Stations

Nearby Weather Stations

Station Location Temp. Windchill Dew Point Humidity Wind Precip. Elev Updated Type
                   

Watches & Warnings

There are currently no watches in effect.